Pella, IA (50219)

3:10 PM CDT on August 29, 2016 (GMT -0500)
Oakwood Estates | | Change Station
Active Advisory: Special Statement

Elev 876 ft 41.41 °N, 92.92 °W | Updated 49 seconds ago

Clear
Clear
82.2 °F
Feels Like 88 °F
N
3.7
Wind Variable Wind from SW

Today
High -- | Low -- °F
--% Chance of Precip.
Yesterday
High -- | Low -- °F
Precip. -- in
Pressure 30.18 in
Visibility 10.0 miles
Clouds Clear
Heat Index 88 °F
Dew Point 74 °F
Humidity 75%
Rainfall 0.05 in
Snow Depth Not available.
6:35 AM 7:48 PM
Waning Crescent, 7% visible
METAR KPEA 291955Z AUTO 17009KT 10SM CLR 30/22 A3018 RMK AO2 T02960217
Pressure 30.18 in
Visibility 10.0 miles
Clouds Clear
Heat Index 88 °F
Dew Point 74 °F
Humidity 75%
Rainfall 0.05 in
Snow Depth Not available.
6:35 AM 7:48 PM
Waning Crescent, 7% visible
METAR KPEA 291955Z AUTO 17009KT 10SM CLR 30/22 A3018 RMK AO2 T02960217

10-Day Weather Forecast

Almanac

Astronomy

Aug. 29, 2016 Rise Set
Actual Time
Civil Twilight
Nautical Twilight
Astronomical Twilight
Moon
Length of Visible Light
Length of Day
Tomorrow will be .
, % of the Moon is Illuminated

Today's Extremes

State Highs State Lows

Community

WunderPhotos

Upload Photos

1,935,647 photos uploaded!

WunderBlog® & News

Nearby

Air Quality

  Air Quality AQ Index Pollutant
Not available.

Snow Depth

Station Depth Elevation

Earthquake Activity

City Distance Mag. Time & Date
Minimum magnitude displayed is 2.5.

Coastal Water Temperatures

Place Temperature

Stations

Nearby Weather Stations

Station Location Temp. Windchill Dew Point Humidity Wind Precip. Elev Updated Type
                   

Watches & Warnings

Special Statement
Issued: 1:37 PM CDT Aug. 29, 2016 – National Weather Service

... Conditions are favorable for funnel clouds...

Current atmospheric conditions support the development of funnel
clouds across much of Iowa this afternoon. Usually... these funnel
clouds can form from showers and weak thunderstorms. These funnels
are normally brief... drop only a few hundred feet from the cloud
base... and rarely become a tornado or cause damage. However... if
one is spotted... please immediately report it to the National
Weather Service. If a Tornado Warning would become
necessary... take appropriate action.


Small